sensor_id;sensor_type;location;lat;lon;timestamp;pressure;altitude;pressure_sealevel;temperature;humidity
28456;BME280;15682;56.742;38.866;2022-08-01T00:00:18;99910.0;;;12.6;87.2
28456;BME280;15682;56.742;38.866;2022-08-01T00:02:18;99910.0;;;12.4;87.2
28456;BME280;15682;56.742;38.866;2022-08-01T00:04:18;99910.0;;;12.3;87.8
28456;BME280;15682;56.742;38.866;2022-08-01T00:06:18;99910.0;;;12.3;87.8
28456;BME280;15682;56.742;38.866;2022-08-01T00:08:19;99910.0;;;12.2;87.8
28456;BME280;15682;56.742;38.866;2022-08-01T00:10:19;99910.0;;;12.0;88.3
28456;BME280;15682;56.742;38.866;2022-08-01T00:12:19;99910.0;;;12.0;88.3
28456;BME280;15682;56.742;38.866;2022-08-01T00:14:19;99910.0;;;12.0;88.3
28456;BME280;15682;56.742;38.866;2022-08-01T00:16:19;99910.0;;;12.1;88.0
28456;BME280;15682;56.742;38.866;2022-08-01T00:18:20;99910.0;;;12.2;87.7
28456;BME280;15682;56.742;38.866;2022-08-01T00:20:20;99910.0;;;12.3;88.7
28456;BME280;15682;56.742;38.866;2022-08-01T00:22:20;99910.0;;;12.3;87.1
28456;BME280;15682;56.742;38.866;2022-08-01T00:24:20;99910.0;;;12.3;87.8
28456;BME280;15682;56.742;38.866;2022-08-01T00:26:20;99910.0;;;12.3;87.9
28456;BME280;15682;56.742;38.866;2022-08-01T00:28:21;99910.0;;;12.3;87.9
28456;BME280;15682;56.742;38.866;2022-08-01T00:30:21;99910.0;;;12.3;87.9
28456;BME280;15682;56.742;38.866;2022-08-01T00:32:21;99910.0;;;12.2;87.9
28456;BME280;15682;56.742;38.866;2022-08-01T00:34:21;99910.0;;;12.2;87.9
28456;BME280;15682;56.742;38.866;2022-08-01T00:36:22;99910.0;;;12.1;87.8
28456;BME280;15682;56.742;38.866;2022-08-01T00:38:22;99910.0;;;12.1;87.8
28456;BME280;15682;56.742;38.866;2022-08-01T00:40:22;99910.0;;;12.1;87.8
28456;BME280;15682;56.742;38.866;2022-08-01T00:42:22;99910.0;;;12.1;87.8
28456;BME280;15682;56.742;38.866;2022-08-01T00:44:22;99910.0;;;12.1;87.8
28456;BME280;15682;56.742;38.866;2022-08-01T00:46:23;99910.0;;;12.0;88.9
28456;BME280;15682;56.742;38.866;2022-08-01T00:48:23;99910.0;;;12.0;89.8
28456;BME280;15682;56.742;38.866;2022-08-01T00:50:23;99910.0;;;12.2;88.5
28456;BME280;15682;56.742;38.866;2022-08-01T00:52:23;99910.0;;;12.1;87.8
28456;BME280;15682;56.742;38.866;2022-08-01T00:54:25;99910.0;;;11.9;88.4
28456;BME280;15682;56.742;38.866;2022-08-01T00:56:25;99910.0;;;11.9;88.4
28456;BME280;15682;56.742;38.866;2022-08-01T00:58:24;99910.0;;;12.0;89.8
28456;BME280;15682;56.742;38.866;2022-08-01T01:00:25;99910.0;;;11.9;88.5
28456;BME280;15682;56.742;38.866;2022-08-01T01:02:24;99910.0;;;11.8;88.5
28456;BME280;15682;56.742;38.866;2022-08-01T01:04:25;99910.0;;;11.8;88.5
28456;BME280;15682;56.742;38.866;2022-08-01T01:06:30;99910.0;;;11.7;88.7
28456;BME280;15682;56.742;38.866;2022-08-01T01:08:32;99910.0;;;11.7;89.2
28456;BME280;15682;56.742;38.866;2022-08-01T01:10:30;99910.0;;;11.9;89.9
28456;BME280;15682;56.742;38.866;2022-08-01T01:12:29;99910.0;;;11.7;88.9
28456;BME280;15682;56.742;38.866;2022-08-01T01:14:31;99910.0;;;11.9;90.0
28456;BME280;15682;56.742;38.866;2022-08-01T01:16:27;99910.0;;;11.9;88.2
28456;BME280;15682;56.742;38.866;2022-08-01T01:18:30;99910.0;;;11.8;88.2
28456;BME280;15682;56.742;38.866;2022-08-01T01:20:31;99910.0;;;12.0;88.2
28456;BME280;15682;56.742;38.866;2022-08-01T01:22:36;99910.0;;;11.8;87.8
28456;BME280;15682;56.742;38.866;2022-08-01T01:24:34;99910.0;;;11.7;87.8
28456;BME280;15682;56.742;38.866;2022-08-01T01:26:38;99910.0;;;11.7;88.0
28456;BME280;15682;56.742;38.866;2022-08-01T01:28:34;99910.0;;;11.7;89.2
28456;BME280;15682;56.742;38.866;2022-08-01T01:30:29;99910.0;;;11.7;87.8
28456;BME280;15682;56.742;38.866;2022-08-01T01:32:32;99910.0;;;11.7;87.8
28456;BME280;15682;56.742;38.866;2022-08-01T01:34:29;99910.0;;;11.7;87.8
28456;BME280;15682;56.742;38.866;2022-08-01T01:36:28;99900.0;;;11.7;87.9
28456;BME280;15682;56.742;38.866;2022-08-01T01:38:32;99900.0;;;11.7;87.9
28456;BME280;15682;56.742;38.866;2022-08-01T01:40:30;99900.0;;;11.7;87.9
28456;BME280;15682;56.742;38.866;2022-08-01T01:42:30;99910.0;;;11.7;87.9
28456;BME280;15682;56.742;38.866;2022-08-01T01:44:30;99910.0;;;11.7;88.4
28456;BME280;15682;56.742;38.866;2022-08-01T01:46:30;99910.0;;;11.6;88.8
28456;BME280;15682;56.742;38.866;2022-08-01T01:48:30;99910.0;;;11.6;88.8
28456;BME280;15682;56.742;38.866;2022-08-01T01:50:30;99910.0;;;11.6;88.8
28456;BME280;15682;56.742;38.866;2022-08-01T01:52:31;99910.0;;;11.6;88.9
28456;BME280;15682;56.742;38.866;2022-08-01T01:54:33;99910.0;;;11.8;88.9
28456;BME280;15682;56.742;38.866;2022-08-01T01:56:31;99900.0;;;11.9;88.8
28456;BME280;15682;56.742;38.866;2022-08-01T01:58:33;99900.0;;;11.9;88.1
28456;BME280;15682;56.742;38.866;2022-08-01T02:00:31;99900.0;;;11.9;88.1
28456;BME280;15682;56.742;38.866;2022-08-01T02:02:31;99900.0;;;11.9;88.1
28456;BME280;15682;56.742;38.866;2022-08-01T02:04:32;99900.0;;;11.9;87.6
28456;BME280;15682;56.742;38.866;2022-08-01T02:06:31;99900.0;;;12.1;87.6
28456;BME280;15682;56.742;38.866;2022-08-01T02:08:33;99900.0;;;12.2;87.6
28456;BME280;15682;56.742;38.866;2022-08-01T02:10:32;99900.0;;;12.2;87.6
28456;BME280;15682;56.742;38.866;2022-08-01T02:12:35;99900.0;;;12.1;87.6
28456;BME280;15682;56.742;38.866;2022-08-01T02:14:34;99890.0;;;12.2;87.6
28456;BME280;15682;56.742;38.866;2022-08-01T02:16:35;99890.0;;;12.2;87.4
28456;BME280;15682;56.742;38.866;2022-08-01T02:18:33;99890.0;;;12.2;87.4
28456;BME280;15682;56.742;38.866;2022-08-01T02:20:34;99890.0;;;12.2;87.4
28456;BME280;15682;56.742;38.866;2022-08-01T02:22:37;99890.0;;;12.2;87.4
28456;BME280;15682;56.742;38.866;2022-08-01T02:24:38;99890.0;;;12.1;87.4
28456;BME280;15682;56.742;38.866;2022-08-01T02:26:34;99890.0;;;12.3;86.8
28456;BME280;15682;56.742;38.866;2022-08-01T02:28:38;99890.0;;;12.3;86.8
28456;BME280;15682;56.742;38.866;2022-08-01T02:30:35;99890.0;;;12.3;86.8
28456;BME280;15682;56.742;38.866;2022-08-01T02:32:38;99890.0;;;12.4;86.2
28456;BME280;15682;56.742;38.866;2022-08-01T02:34:35;99890.0;;;12.4;86.2
28456;BME280;15682;56.742;38.866;2022-08-01T02:36:35;99890.0;;;12.4;86.2
28456;BME280;15682;56.742;38.866;2022-08-01T02:38:39;99890.0;;;12.6;86.2
28456;BME280;15682;56.742;38.866;2022-08-01T02:40:38;99890.0;;;12.7;86.2
28456;BME280;15682;56.742;38.866;2022-08-01T02:42:37;99890.0;;;12.7;85.6
28456;BME280;15682;56.742;38.866;2022-08-01T02:44:38;99890.0;;;12.7;85.6
28456;BME280;15682;56.742;38.866;2022-08-01T02:46:41;99890.0;;;12.8;85.3
28456;BME280;15682;56.742;38.866;2022-08-01T02:48:37;99890.0;;;12.8;85.3
28456;BME280;15682;56.742;38.866;2022-08-01T02:50:37;99890.0;;;12.7;85.3
28456;BME280;15682;56.742;38.866;2022-08-01T02:52:37;99890.0;;;12.8;85.1
28456;BME280;15682;56.742;38.866;2022-08-01T02:54:37;99890.0;;;12.8;84.5
28456;BME280;15682;56.742;38.866;2022-08-01T02:56:38;99900.0;;;12.8;84.6
28456;BME280;15682;56.742;38.866;2022-08-01T02:58:38;99900.0;;;12.8;84.6
28456;BME280;15682;56.742;38.866;2022-08-01T03:00:38;99900.0;;;12.8;83.9
28456;BME280;15682;56.742;38.866;2022-08-01T03:02:38;99900.0;;;12.8;83.9
28456;BME280;15682;56.742;38.866;2022-08-01T03:04:39;99900.0;;;12.8;83.9
28456;BME280;15682;56.742;38.866;2022-08-01T03:06:39;99900.0;;;13.0;83.3
28456;BME280;15682;56.742;38.866;2022-08-01T03:08:38;99900.0;;;13.0;82.8
28456;BME280;15682;56.742;38.866;2022-08-01T03:10:40;99900.0;;;13.2;82.2
28456;BME280;15682;56.742;38.866;2022-08-01T03:12:39;99900.0;;;13.5;80.5
28456;BME280;15682;56.742;38.866;2022-08-01T03:14:40;99900.0;;;13.5;80.5
28456;BME280;15682;56.742;38.866;2022-08-01T03:16:42;99900.0;;;13.4;80.5
28456;BME280;15682;56.742;38.866;2022-08-01T03:18:40;99900.0;;;13.4;81.5
28456;BME280;15682;56.742;38.866;2022-08-01T03:20:40;99900.0;;;13.3;81.7
28456;BME280;15682;56.742;38.866;2022-08-01T03:22:40;99900.0;;;13.4;80.8
28456;BME280;15682;56.742;38.866;2022-08-01T03:24:41;99900.0;;;13.4;80.8
28456;BME280;15682;56.742;38.866;2022-08-01T03:26:41;99900.0;;;13.4;81.4
28456;BME280;15682;56.742;38.866;2022-08-01T03:28:41;99900.0;;;13.4;81.4
28456;BME280;15682;56.742;38.866;2022-08-01T03:30:42;99900.0;;;13.4;80.9
28456;BME280;15682;56.742;38.866;2022-08-01T03:32:41;99900.0;;;13.6;81.5
28456;BME280;15682;56.742;38.866;2022-08-01T03:34:42;99900.0;;;13.6;81.5
28456;BME280;15682;56.742;38.866;2022-08-01T03:36:47;99890.0;;;13.7;80.6
28456;BME280;15682;56.742;38.866;2022-08-01T03:38:43;99890.0;;;13.8;80.6
28456;BME280;15682;56.742;38.866;2022-08-01T03:40:47;99890.0;;;14.0;80.9
28456;BME280;15682;56.742;38.866;2022-08-01T03:42:47;99900.0;;;14.0;79.5
28456;BME280;15682;56.742;38.866;2022-08-01T03:44:47;99900.0;;;14.2;80.3
28456;BME280;15682;56.742;38.866;2022-08-01T03:46:47;99900.0;;;14.2;79.7
28456;BME280;15682;56.742;38.866;2022-08-01T03:48:48;99900.0;;;14.4;79.7
28456;BME280;15682;56.742;38.866;2022-08-01T03:50:47;99900.0;;;14.5;79.1
28456;BME280;15682;56.742;38.866;2022-08-01T03:52:46;99900.0;;;14.6;78.4
28456;BME280;15682;56.742;38.866;2022-08-01T03:54:47;99900.0;;;14.6;78.4
28456;BME280;15682;56.742;38.866;2022-08-01T03:56:46;99900.0;;;14.6;78.4
28456;BME280;15682;56.742;38.866;2022-08-01T03:58:46;99900.0;;;14.8;77.8
28456;BME280;15682;56.742;38.866;2022-08-01T04:00:48;99900.0;;;14.8;78.7
28456;BME280;15682;56.742;38.866;2022-08-01T04:02:48;99900.0;;;15.0;77.9
28456;BME280;15682;56.742;38.866;2022-08-01T04:04:48;99900.0;;;15.2;77.9
28456;BME280;15682;56.742;38.866;2022-08-01T04:06:48;99900.0;;;15.3;77.9
28456;BME280;15682;56.742;38.866;2022-08-01T04:08:49;99900.0;;;15.4;77.9
28456;BME280;15682;56.742;38.866;2022-08-01T04:10:49;99900.0;;;15.6;77.2
28456;BME280;15682;56.742;38.866;2022-08-01T04:12:50;99900.0;;;15.6;77.2
28456;BME280;15682;56.742;38.866;2022-08-01T04:14:50;99900.0;;;15.6;77.2
28456;BME280;15682;56.742;38.866;2022-08-01T04:16:51;99900.0;;;15.7;77.2
28456;BME280;15682;56.742;38.866;2022-08-01T04:18:52;99900.0;;;15.8;77.2
28456;BME280;15682;56.742;38.866;2022-08-01T04:20:52;99900.0;;;15.9;77.2
28456;BME280;15682;56.742;38.866;2022-08-01T04:22:53;99900.0;;;15.9;77.2
28456;BME280;15682;56.742;38.866;2022-08-01T04:24:55;99900.0;;;16.1;76.7
28456;BME280;15682;56.742;38.866;2022-08-01T04:26:54;99900.0;;;16.2;76.1
28456;BME280;15682;56.742;38.866;2022-08-01T04:28:55;99890.0;;;16.4;76.1
28456;BME280;15682;56.742;38.866;2022-08-01T04:30:56;99890.0;;;16.5;75.8
28456;BME280;15682;56.742;38.866;2022-08-01T04:32:57;99890.0;;;16.6;75.5
28456;BME280;15682;56.742;38.866;2022-08-01T04:34:58;99890.0;;;17.0;74.9
28456;BME280;15682;56.742;38.866;2022-08-01T04:36:57;99890.0;;;17.0;74.3
28456;BME280;15682;56.742;38.866;2022-08-01T04:39:00;99890.0;;;17.2;74.3
28456;BME280;15682;56.742;38.866;2022-08-01T04:40:59;99890.0;;;17.2;73.5
28456;BME280;15682;56.742;38.866;2022-08-01T04:43:00;99890.0;;;17.4;72.9
28456;BME280;15682;56.742;38.866;2022-08-01T04:45:00;99890.0;;;17.5;72.9
28456;BME280;15682;56.742;38.866;2022-08-01T04:47:02;99890.0;;;17.6;72.0
28456;BME280;15682;56.742;38.866;2022-08-01T04:49:01;99890.0;;;17.8;72.0
28456;BME280;15682;56.742;38.866;2022-08-01T04:51:02;99890.0;;;17.8;71.8
28456;BME280;15682;56.742;38.866;2022-08-01T04:53:03;99890.0;;;17.8;71.8
28456;BME280;15682;56.742;38.866;2022-08-01T04:55:04;99890.0;;;17.9;70.6
28456;BME280;15682;56.742;38.866;2022-08-01T04:57:05;99890.0;;;18.0;70.6
28456;BME280;15682;56.742;38.866;2022-08-01T04:59:05;99890.0;;;18.1;70.1
28456;BME280;15682;56.742;38.866;2022-08-01T05:01:05;99890.0;;;18.2;69.2
28456;BME280;15682;56.742;38.866;2022-08-01T05:03:06;99890.0;;;18.4;69.2
28456;BME280;15682;56.742;38.866;2022-08-01T05:05:07;99890.0;;;18.4;70.0
28456;BME280;15682;56.742;38.866;2022-08-01T05:07:08;99890.0;;;18.6;70.6
28456;BME280;15682;56.742;38.866;2022-08-01T05:09:08;99890.0;;;18.6;70.6
28456;BME280;15682;56.742;38.866;2022-08-01T05:11:09;99890.0;;;18.6;70.7
28456;BME280;15682;56.742;38.866;2022-08-01T05:13:09;99890.0;;;18.8;70.1
28456;BME280;15682;56.742;38.866;2022-08-01T05:15:10;99890.0;;;18.8;70.1
28456;BME280;15682;56.742;38.866;2022-08-01T05:17:11;99890.0;;;18.8;69.3
28456;BME280;15682;56.742;38.866;2022-08-01T05:19:11;99890.0;;;18.8;69.3
28456;BME280;15682;56.742;38.866;2022-08-01T05:21:12;99890.0;;;19.0;68.8
28456;BME280;15682;56.742;38.866;2022-08-01T05:23:13;99890.0;;;19.1;68.8
28456;BME280;15682;56.742;38.866;2022-08-01T05:25:14;99890.0;;;19.1;68.8
28456;BME280;15682;56.742;38.866;2022-08-01T05:27:14;99890.0;;;19.3;68.1
28456;BME280;15682;56.742;38.866;2022-08-01T05:29:15;99890.0;;;19.5;67.4
28456;BME280;15682;56.742;38.866;2022-08-01T05:31:16;99890.0;;;19.5;67.4
28456;BME280;15682;56.742;38.866;2022-08-01T05:33:16;99890.0;;;19.5;67.4
28456;BME280;15682;56.742;38.866;2022-08-01T05:35:17;99890.0;;;19.5;67.4
28456;BME280;15682;56.742;38.866;2022-08-01T05:37:18;99890.0;;;19.5;67.4
28456;BME280;15682;56.742;38.866;2022-08-01T05:39:19;99890.0;;;19.5;66.5
28456;BME280;15682;56.742;38.866;2022-08-01T05:41:19;99890.0;;;19.6;65.3
28456;BME280;15682;56.742;38.866;2022-08-01T05:43:20;99890.0;;;19.7;65.9
28456;BME280;15682;56.742;38.866;2022-08-01T05:45:21;99890.0;;;19.8;65.9
28456;BME280;15682;56.742;38.866;2022-08-01T05:47:21;99890.0;;;20.0;65.2
28456;BME280;15682;56.742;38.866;2022-08-01T05:49:22;99890.0;;;20.0;64.2
28456;BME280;15682;56.742;38.866;2022-08-01T05:51:23;99890.0;;;20.0;64.0
28456;BME280;15682;56.742;38.866;2022-08-01T05:53:24;99890.0;;;20.1;63.0
28456;BME280;15682;56.742;38.866;2022-08-01T05:55:24;99890.0;;;20.3;62.0
28456;BME280;15682;56.742;38.866;2022-08-01T05:57:25;99890.0;;;20.3;60.4
28456;BME280;15682;56.742;38.866;2022-08-01T05:59:26;99890.0;;;20.3;60.4
28456;BME280;15682;56.742;38.866;2022-08-01T06:01:26;99890.0;;;20.2;58.9
28456;BME280;15682;56.742;38.866;2022-08-01T06:03:27;99890.0;;;20.2;59.5
28456;BME280;15682;56.742;38.866;2022-08-01T06:05:28;99890.0;;;20.5;58.4
28456;BME280;15682;56.742;38.866;2022-08-01T06:07:29;99890.0;;;20.6;57.2
28456;BME280;15682;56.742;38.866;2022-08-01T06:09:29;99890.0;;;20.6;56.6
28456;BME280;15682;56.742;38.866;2022-08-01T06:11:30;99890.0;;;20.7;56.6
28456;BME280;15682;56.742;38.866;2022-08-01T06:13:31;99890.0;;;20.7;55.9
28456;BME280;15682;56.742;38.866;2022-08-01T06:15:32;99890.0;;;20.6;57.0
28456;BME280;15682;56.742;38.866;2022-08-01T06:17:32;99890.0;;;20.8;52.3
28456;BME280;15682;56.742;38.866;2022-08-01T06:19:33;99890.0;;;20.8;53.1
28456;BME280;15682;56.742;38.866;2022-08-01T06:21:34;99890.0;;;20.9;53.1
28456;BME280;15682;56.742;38.866;2022-08-01T06:23:34;99890.0;;;20.8;54.1
28456;BME280;15682;56.742;38.866;2022-08-01T06:25:35;99890.0;;;21.0;54.7
28456;BME280;15682;56.742;38.866;2022-08-01T06:27:36;99890.0;;;21.0;54.1
28456;BME280;15682;56.742;38.866;2022-08-01T06:29:36;99890.0;;;21.1;55.3
28456;BME280;15682;56.742;38.866;2022-08-01T06:31:37;99890.0;;;21.2;51.9
28456;BME280;15682;56.742;38.866;2022-08-01T06:33:38;99890.0;;;21.2;52.6
28456;BME280;15682;56.742;38.866;2022-08-01T06:35:39;99890.0;;;21.3;52.4
28456;BME280;15682;56.742;38.866;2022-08-01T06:37:39;99890.0;;;21.4;51.5
28456;BME280;15682;56.742;38.866;2022-08-01T06:39:40;99890.0;;;21.5;50.8
28456;BME280;15682;56.742;38.866;2022-08-01T06:41:41;99890.0;;;21.6;50.8
28456;BME280;15682;56.742;38.866;2022-08-01T06:43:42;99890.0;;;21.6;51.4
28456;BME280;15682;56.742;38.866;2022-08-01T06:45:42;99890.0;;;21.6;52.6
28456;BME280;15682;56.742;38.866;2022-08-01T06:47:44;99890.0;;;21.6;52.1
28456;BME280;15682;56.742;38.866;2022-08-01T06:49:44;99890.0;;;21.7;51.6
28456;BME280;15682;56.742;38.866;2022-08-01T06:51:45;99890.0;;;21.8;51.6
28456;BME280;15682;56.742;38.866;2022-08-01T06:53:45;99890.0;;;22.0;52.1
28456;BME280;15682;56.742;38.866;2022-08-01T06:55:46;99890.0;;;22.0;51.5
28456;BME280;15682;56.742;38.866;2022-08-01T06:57:47;99890.0;;;22.0;50.8
28456;BME280;15682;56.742;38.866;2022-08-01T06:59:47;99890.0;;;22.0;51.5
28456;BME280;15682;56.742;38.866;2022-08-01T07:01:48;99890.0;;;22.1;52.1
28456;BME280;15682;56.742;38.866;2022-08-01T07:03:48;99890.0;;;22.1;52.1
28456;BME280;15682;56.742;38.866;2022-08-01T07:05:49;99890.0;;;22.1;50.3
28456;BME280;15682;56.742;38.866;2022-08-01T07:07:50;99890.0;;;22.1;50.3
28456;BME280;15682;56.742;38.866;2022-08-01T07:09:50;99890.0;;;22.1;49.6
28456;BME280;15682;56.742;38.866;2022-08-01T07:11:51;99890.0;;;22.1;49.6
28456;BME280;15682;56.742;38.866;2022-08-01T07:13:52;99890.0;;;22.0;49.4
28456;BME280;15682;56.742;38.866;2022-08-01T07:15:53;99890.0;;;22.2;48.6
28456;BME280;15682;56.742;38.866;2022-08-01T07:17:53;99890.0;;;22.4;49.2
28456;BME280;15682;56.742;38.866;2022-08-01T07:19:54;99890.0;;;22.3;49.5
28456;BME280;15682;56.742;38.866;2022-08-01T07:21:55;99890.0;;;22.1;50.0
28456;BME280;15682;56.742;38.866;2022-08-01T07:23:55;99890.0;;;22.0;49.4
28456;BME280;15682;56.742;38.866;2022-08-01T07:25:56;99890.0;;;22.0;50.7
28456;BME280;15682;56.742;38.866;2022-08-01T07:27:57;99890.0;;;22.2;49.4
28456;BME280;15682;56.742;38.866;2022-08-01T07:29:57;99890.0;;;22.5;50.1
28456;BME280;15682;56.742;38.866;2022-08-01T07:31:58;99890.0;;;22.5;49.4
28456;BME280;15682;56.742;38.866;2022-08-01T07:33:58;99890.0;;;22.6;49.4
28456;BME280;15682;56.742;38.866;2022-08-01T07:35:59;99890.0;;;22.8;49.4
28456;BME280;15682;56.742;38.866;2022-08-01T07:38:00;99890.0;;;22.8;49.1
28456;BME280;15682;56.742;38.866;2022-08-01T07:40:00;99890.0;;;22.8;48.7
28456;BME280;15682;56.742;38.866;2022-08-01T07:42:01;99890.0;;;22.8;48.1
28456;BME280;15682;56.742;38.866;2022-08-01T07:44:02;99890.0;;;22.5;48.4
28456;BME280;15682;56.742;38.866;2022-08-01T07:46:03;99890.0;;;22.5;49.5
28456;BME280;15682;56.742;38.866;2022-08-01T07:48:03;99890.0;;;22.9;49.0
28456;BME280;15682;56.742;38.866;2022-08-01T07:50:05;99890.0;;;22.9;48.1
28456;BME280;15682;56.742;38.866;2022-08-01T07:52:04;99890.0;;;22.9;48.1
28456;BME280;15682;56.742;38.866;2022-08-01T07:54:04;99890.0;;;22.5;48.7
28456;BME280;15682;56.742;38.866;2022-08-01T07:56:05;99890.0;;;22.5;47.8
28456;BME280;15682;56.742;38.866;2022-08-01T07:58:06;99890.0;;;22.5;48.2
28456;BME280;15682;56.742;38.866;2022-08-01T08:00:07;99890.0;;;22.6;48.7
28456;BME280;15682;56.742;38.866;2022-08-01T08:02:07;99890.0;;;22.8;47.9
28456;BME280;15682;56.742;38.866;2022-08-01T08:04:07;99890.0;;;23.2;47.2
28456;BME280;15682;56.742;38.866;2022-08-01T08:06:08;99890.0;;;23.2;46.1
28456;BME280;15682;56.742;38.866;2022-08-01T08:08:09;99890.0;;;23.2;46.1
28456;BME280;15682;56.742;38.866;2022-08-01T08:10:09;99890.0;;;23.4;45.1
28456;BME280;15682;56.742;38.866;2022-08-01T08:12:09;99890.0;;;23.5;42.9
28456;BME280;15682;56.742;38.866;2022-08-01T08:14:10;99890.0;;;23.8;43.6
28456;BME280;15682;56.742;38.866;2022-08-01T08:16:11;99890.0;;;23.8;42.6
28456;BME280;15682;56.742;38.866;2022-08-01T08:18:11;99890.0;;;23.9;40.7
28456;BME280;15682;56.742;38.866;2022-08-01T08:20:12;99880.0;;;23.8;40.5
28456;BME280;15682;56.742;38.866;2022-08-01T08:22:12;99880.0;;;23.6;38.9
28456;BME280;15682;56.742;38.866;2022-08-01T08:24:13;99880.0;;;23.6;38.2
28456;BME280;15682;56.742;38.866;2022-08-01T08:26:14;99880.0;;;23.3;39.4
28456;BME280;15682;56.742;38.866;2022-08-01T08:28:14;99880.0;;;22.7;40.9
28456;BME280;15682;56.742;38.866;2022-08-01T08:30:15;99880.0;;;23.0;41.5
28456;BME280;15682;56.742;38.866;2022-08-01T08:32:15;99880.0;;;23.5;39.8
28456;BME280;15682;56.742;38.866;2022-08-01T08:34:16;99880.0;;;23.6;38.5
28456;BME280;15682;56.742;38.866;2022-08-01T08:36:16;99880.0;;;24.0;39.7
28456;BME280;15682;56.742;38.866;2022-08-01T08:38:17;99880.0;;;24.2;40.4
28456;BME280;15682;56.742;38.866;2022-08-01T08:40:19;99880.0;;;24.6;39.6
28456;BME280;15682;56.742;38.866;2022-08-01T08:42:18;99870.0;;;24.5;39.8
28456;BME280;15682;56.742;38.866;2022-08-01T08:44:19;99870.0;;;24.5;41.0
28456;BME280;15682;56.742;38.866;2022-08-01T08:46:20;99870.0;;;24.7;41.3
28456;BME280;15682;56.742;38.866;2022-08-01T08:48:20;99870.0;;;24.7;39.9
28456;BME280;15682;56.742;38.866;2022-08-01T08:50:21;99870.0;;;24.8;39.1
28456;BME280;15682;56.742;38.866;2022-08-01T08:52:22;99870.0;;;25.0;42.7
28456;BME280;15682;56.742;38.866;2022-08-01T08:54:23;99860.0;;;25.0;42.6
28456;BME280;15682;56.742;38.866;2022-08-01T08:56:24;99860.0;;;25.0;39.8
28456;BME280;15682;56.742;38.866;2022-08-01T08:58:25;99860.0;;;25.1;40.5
28456;BME280;15682;56.742;38.866;2022-08-01T09:00:23;99870.0;;;25.2;40.5
28456;BME280;15682;56.742;38.866;2022-08-01T09:02:24;99870.0;;;24.8;39.4
28456;BME280;15682;56.742;38.866;2022-08-01T09:04:25;99870.0;;;25.0;39.7
28456;BME280;15682;56.742;38.866;2022-08-01T09:06:25;99870.0;;;25.2;38.6
28456;BME280;15682;56.742;38.866;2022-08-01T09:08:26;99870.0;;;25.6;41.6
28456;BME280;15682;56.742;38.866;2022-08-01T09:10:26;99870.0;;;25.7;39.3
28456;BME280;15682;56.742;38.866;2022-08-01T09:12:27;99870.0;;;25.8;36.7
28456;BME280;15682;56.742;38.866;2022-08-01T09:14:27;99870.0;;;25.8;37.2
28456;BME280;15682;56.742;38.866;2022-08-01T09:16:28;99870.0;;;26.0;36.3
28456;BME280;15682;56.742;38.866;2022-08-01T09:18:31;99860.0;;;26.1;37.9
28456;BME280;15682;56.742;38.866;2022-08-01T09:20:29;99860.0;;;26.3;38.3
28456;BME280;15682;56.742;38.866;2022-08-01T09:22:33;99860.0;;;26.5;39.9
28456;BME280;15682;56.742;38.866;2022-08-01T09:24:31;99860.0;;;25.8;42.7
28456;BME280;15682;56.742;38.866;2022-08-01T09:26:33;99860.0;;;24.7;43.1
28456;BME280;15682;56.742;38.866;2022-08-01T09:28:32;99860.0;;;24.8;41.6
28456;BME280;15682;56.742;38.866;2022-08-01T09:30:37;99860.0;;;26.2;43.1
28456;BME280;15682;56.742;38.866;2022-08-01T09:32:32;99850.0;;;26.4;41.2
28456;BME280;15682;56.742;38.866;2022-08-01T09:34:33;99850.0;;;26.1;42.0
28456;BME280;15682;56.742;38.866;2022-08-01T09:36:46;99850.0;;;25.7;40.7
28456;BME280;15682;56.742;38.866;2022-08-01T09:38:34;99850.0;;;25.6;41.5
28456;BME280;15682;56.742;38.866;2022-08-01T09:40:45;99850.0;;;25.0;40.8
28456;BME280;15682;56.742;38.866;2022-08-01T09:42:35;99850.0;;;25.0;39.1
28456;BME280;15682;56.742;38.866;2022-08-01T09:44:38;99850.0;;;24.8;40.1
28456;BME280;15682;56.742;38.866;2022-08-01T09:46:49;99850.0;;;24.8;40.1
28456;BME280;15682;56.742;38.866;2022-08-01T09:48:37;99850.0;;;24.5;40.1
28456;BME280;15682;56.742;38.866;2022-08-01T09:50:40;99860.0;;;24.3;41.4
28456;BME280;15682;56.742;38.866;2022-08-01T09:52:38;99860.0;;;23.9;41.4
28456;BME280;15682;56.742;38.866;2022-08-01T09:54:39;99850.0;;;24.1;42.2
28456;BME280;15682;56.742;38.866;2022-08-01T09:56:41;99850.0;;;24.5;41.6
28456;BME280;15682;56.742;38.866;2022-08-01T09:58:55;99850.0;;;24.9;40.7
28456;BME280;15682;56.742;38.866;2022-08-01T10:00:40;99850.0;;;25.1;40.7
28456;BME280;15682;56.742;38.866;2022-08-01T10:02:41;99850.0;;;25.5;40.7
28456;BME280;15682;56.742;38.866;2022-08-01T10:04:50;99850.0;;;25.7;40.0
28456;BME280;15682;56.742;38.866;2022-08-01T10:06:43;99840.0;;;25.7;38.6
28456;BME280;15682;56.742;38.866;2022-08-01T10:08:45;99840.0;;;24.8;39.7
28456;BME280;15682;56.742;38.866;2022-08-01T10:11:07;99840.0;;;24.5;41.1
28456;BME280;15682;56.742;38.866;2022-08-01T10:12:44;99840.0;;;24.4;41.6
28456;BME280;15682;56.742;38.866;2022-08-01T10:14:47;99840.0;;;24.4;42.8
28456;BME280;15682;56.742;38.866;2022-08-01T10:16:45;99840.0;;;24.5;45.0
28456;BME280;15682;56.742;38.866;2022-08-01T10:18:45;99840.0;;;24.5;44.2
28456;BME280;15682;56.742;38.866;2022-08-01T10:20:47;99840.0;;;24.7;43.3
28456;BME280;15682;56.742;38.866;2022-08-01T10:22:46;99840.0;;;24.7;43.4
28456;BME280;15682;56.742;38.866;2022-08-01T10:24:48;99840.0;;;24.7;41.0
28456;BME280;15682;56.742;38.866;2022-08-01T10:26:48;99840.0;;;24.7;41.6
28456;BME280;15682;56.742;38.866;2022-08-01T10:28:48;99840.0;;;24.6;41.6
28456;BME280;15682;56.742;38.866;2022-08-01T10:30:48;99840.0;;;24.4;41.1
28456;BME280;15682;56.742;38.866;2022-08-01T10:32:49;99840.0;;;24.1;41.1
28456;BME280;15682;56.742;38.866;2022-08-01T10:34:50;99840.0;;;24.0;42.7
28456;BME280;15682;56.742;38.866;2022-08-01T10:36:50;99840.0;;;24.2;42.7
28456;BME280;15682;56.742;38.866;2022-08-01T10:38:51;99840.0;;;24.2;43.3
28456;BME280;15682;56.742;38.866;2022-08-01T10:40:51;99840.0;;;24.4;42.7
28456;BME280;15682;56.742;38.866;2022-08-01T10:42:52;99830.0;;;24.2;42.0
28456;BME280;15682;56.742;38.866;2022-08-01T10:44:52;99830.0;;;24.5;41.8
28456;BME280;15682;56.742;38.866;2022-08-01T10:46:57;99830.0;;;24.7;41.8
28456;BME280;15682;56.742;38.866;2022-08-01T10:48:56;99820.0;;;24.6;41.8
28456;BME280;15682;56.742;38.866;2022-08-01T10:50:55;99820.0;;;24.4;41.8
28456;BME280;15682;56.742;38.866;2022-08-01T10:53:10;99820.0;;;24.9;43.5
28456;BME280;15682;56.742;38.866;2022-08-01T10:55:02;99820.0;;;25.0;40.4